Terminal Aerodrome Forecast
Issued by NWS

Home | Current Version | Previous Version | Text Only | Print | Product List | Glossary On
Versions: 1 2 3 4 5 6 7 8 9 10 11 12 13
000
FTUS42 TJSJ 241149
TAFISX
TAF
TISX 241149Z 2412/2512 08012KT P6SM SHRA VCTS SCT020CB BKN040
      OVC060
     FM241600 19015G25KT 5SM TSRA SCT010CB BKN020 OVC035
     FM242200 14008KT P6SM VCSH SCT025 SCT070=

USA.gov is the U.S. government's official web portal to all federal, state and local government web resources and services.